sensor_id;sensor_type;location;lat;lon;timestamp;pressure;altitude;pressure_sealevel;temperature;humidity
46614;BME280;32338;50.430;6.806;2023-02-18T00:00:55;66246.47;;;7.62;100.00
46614;BME280;32338;50.430;6.806;2023-02-18T00:03:22;66267.44;;;7.77;100.00
46614;BME280;32338;50.430;6.806;2023-02-18T00:05:49;66244.22;;;7.60;100.00
46614;BME280;32338;50.430;6.806;2023-02-18T00:08:15;66243.25;;;7.55;100.00
46614;BME280;32338;50.430;6.806;2023-02-18T00:10:42;66242.69;;;7.54;100.00
46614;BME280;32338;50.430;6.806;2023-02-18T00:13:10;66237.47;;;7.54;100.00
46614;BME280;32338;50.430;6.806;2023-02-18T00:15:37;66252.25;;;7.63;100.00
46614;BME280;32338;50.430;6.806;2023-02-18T00:18:04;66239.16;;;7.56;100.00
46614;BME280;32338;50.430;6.806;2023-02-18T00:20:31;66247.75;;;7.59;100.00
46614;BME280;32338;50.430;6.806;2023-02-18T00:23:00;66245.34;;;7.61;100.00
46614;BME280;32338;50.430;6.806;2023-02-18T00:25:27;66238.97;;;7.53;100.00
46614;BME280;32338;50.430;6.806;2023-02-18T00:27:53;66237.84;;;7.52;100.00
46614;BME280;32338;50.430;6.806;2023-02-18T00:30:21;66243.09;;;7.59;100.00
46614;BME280;32338;50.430;6.806;2023-02-18T00:32:48;66240.66;;;7.55;100.00
46614;BME280;32338;50.430;6.806;2023-02-18T00:35:15;66230.38;;;7.50;100.00
46614;BME280;32338;50.430;6.806;2023-02-18T00:37:41;66234.81;;;7.47;100.00
46614;BME280;32338;50.430;6.806;2023-02-18T00:40:08;66232.03;;;7.44;100.00
46614;BME280;32338;50.430;6.806;2023-02-18T00:42:35;66228.28;;;7.43;100.00
46614;BME280;32338;50.430;6.806;2023-02-18T00:45:02;66230.91;;;7.43;100.00
46614;BME280;32338;50.430;6.806;2023-02-18T00:47:30;66233.16;;;7.45;100.00
46614;BME280;32338;50.430;6.806;2023-02-18T00:49:57;66227.72;;;7.43;100.00
46614;BME280;32338;50.430;6.806;2023-02-18T00:52:23;66225.47;;;7.41;100.00
46614;BME280;32338;50.430;6.806;2023-02-18T00:54:50;66219.50;;;7.38;100.00
46614;BME280;32338;50.430;6.806;2023-02-18T00:57:17;66220.78;;;7.34;100.00
46614;BME280;32338;50.430;6.806;2023-02-18T00:59:43;66227.19;;;7.42;100.00
46614;BME280;32338;50.430;6.806;2023-02-18T01:02:10;66230.91;;;7.43;100.00
46614;BME280;32338;50.430;6.806;2023-02-18T01:04:38;66217.81;;;7.36;100.00
46614;BME280;32338;50.430;6.806;2023-02-18T01:07:05;66218.53;;;7.32;100.00
46614;BME280;32338;50.430;6.806;2023-02-18T01:09:31;66218.94;;;7.37;100.00
46614;BME280;32338;50.430;6.806;2023-02-18T01:11:58;66218.72;;;7.35;100.00
46614;BME280;32338;50.430;6.806;2023-02-18T01:14:24;66220.22;;;7.34;100.00
46614;BME280;32338;50.430;6.806;2023-02-18T01:16:51;66218.19;;;7.34;100.00
46614;BME280;32338;50.430;6.806;2023-02-18T01:19:18;66210.16;;;7.32;100.00
46614;BME280;32338;50.430;6.806;2023-02-18T01:21:46;66213.13;;;7.29;100.00
46614;BME280;32338;50.430;6.806;2023-02-18T01:24:13;66213.13;;;7.29;100.00
46614;BME280;32338;50.430;6.806;2023-02-18T01:26:39;66206.94;;;7.24;100.00
46614;BME280;32338;50.430;6.806;2023-02-18T01:29:06;66202.44;;;7.20;100.00
46614;BME280;32338;50.430;6.806;2023-02-18T01:31:32;66211.78;;;7.26;100.00
46614;BME280;32338;50.430;6.806;2023-02-18T01:33:59;66219.66;;;7.33;100.00
46614;BME280;32338;50.430;6.806;2023-02-18T01:36:26;66216.66;;;7.28;100.00
46614;BME280;32338;50.430;6.806;2023-02-18T01:38:54;66214.03;;;7.28;100.00
46614;BME280;32338;50.430;6.806;2023-02-18T01:41:20;66210.31;;;7.27;100.00
46614;BME280;32338;50.430;6.806;2023-02-18T01:43:47;66205.25;;;7.22;100.00
46614;BME280;32338;50.430;6.806;2023-02-18T01:46:16;66203.22;;;7.23;100.00
46614;BME280;32338;50.430;6.806;2023-02-18T01:48:46;66202.63;;;7.22;100.00
46614;BME280;32338;50.430;6.806;2023-02-18T01:51:17;66206.78;;;7.28;100.00
46614;BME280;32338;50.430;6.806;2023-02-18T01:53:49;66212.56;;;7.29;100.00
46614;BME280;32338;50.430;6.806;2023-02-18T01:56:22;66212.91;;;7.27;100.00
46614;BME280;32338;50.430;6.806;2023-02-18T01:58:51;66216.09;;;7.27;100.00
46614;BME280;32338;50.430;6.806;2023-02-18T02:01:19;66215.53;;;7.27;100.00
46614;BME280;32338;50.430;6.806;2023-02-18T02:03:46;66214.97;;;7.26;100.00
46614;BME280;32338;50.430;6.806;2023-02-18T02:06:16;66218.94;;;7.37;100.00
46614;BME280;32338;50.430;6.806;2023-02-18T02:08:44;66215.38;;;7.32;100.00
46614;BME280;32338;50.430;6.806;2023-02-18T02:11:23;66218.19;;;7.34;100.00
46614;BME280;32338;50.430;6.806;2023-02-18T02:14:12;66212.00;;;7.28;100.00
46614;BME280;32338;50.430;6.806;2023-02-18T02:16:44;66227.19;;;7.42;100.00
46614;BME280;32338;50.430;6.806;2023-02-18T02:19:41;66219.88;;;7.36;100.00
46614;BME280;32338;50.430;6.806;2023-02-18T02:25:19;66221.91;;;7.35;100.00
46614;BME280;32338;50.430;6.806;2023-02-18T02:28:16;66214.44;;;7.33;100.00
46614;BME280;32338;50.430;6.806;2023-02-18T02:31:11;66218.91;;;7.30;100.00
46614;BME280;32338;50.430;6.806;2023-02-18T02:34:00;66226.97;;;7.40;100.00
46614;BME280;32338;50.430;6.806;2023-02-18T02:36:37;66217.06;;;7.33;100.00
46614;BME280;32338;50.430;6.806;2023-02-18T02:39:11;66214.81;;;7.31;100.00
46614;BME280;32338;50.430;6.806;2023-02-18T02:41:45;66222.13;;;7.38;100.00
46614;BME280;32338;50.430;6.806;2023-02-18T02:44:19;66229.22;;;7.42;100.00
46614;BME280;32338;50.430;6.806;2023-02-18T02:46:50;66233.91;;;7.49;100.00
46614;BME280;32338;50.430;6.806;2023-02-18T02:49:27;66230.34;;;7.43;100.00
46614;BME280;32338;50.430;6.806;2023-02-18T02:52:02;66228.09;;;7.41;100.00
46614;BME280;32338;50.430;6.806;2023-02-18T02:54:31;66232.59;;;7.45;100.00
46614;BME280;32338;50.430;6.806;2023-02-18T02:57:07;66227.53;;;7.40;100.00
46614;BME280;32338;50.430;6.806;2023-02-18T02:59:35;66213.13;;;7.29;100.00
46614;BME280;32338;50.430;6.806;2023-02-18T03:02:17;66209.56;;;7.24;100.00
46614;BME280;32338;50.430;6.806;2023-02-18T03:05:00;66213.50;;;7.27;100.00
46614;BME280;32338;50.430;6.806;2023-02-18T03:07:42;66202.09;;;7.22;100.00
46614;BME280;32338;50.430;6.806;2023-02-18T03:10:25;66208.44;;;7.23;100.00
46614;BME280;32338;50.430;6.806;2023-02-18T03:13:03;66203.38;;;7.18;100.00
46614;BME280;32338;50.430;6.806;2023-02-18T03:15:37;66203.56;;;7.21;100.00
46614;BME280;32338;50.430;6.806;2023-02-18T03:18:09;66203.38;;;7.18;100.00
46614;BME280;32338;50.430;6.806;2023-02-18T03:20:46;66200.91;;;7.13;100.00
46614;BME280;32338;50.430;6.806;2023-02-18T03:23:21;66194.03;;;7.12;100.00
46614;BME280;32338;50.430;6.806;2023-02-18T03:25:50;66195.50;;;7.11;100.00
46614;BME280;32338;50.430;6.806;2023-02-18T03:28:18;66195.91;;;7.16;100.00
46614;BME280;32338;50.430;6.806;2023-02-18T03:30:47;66196.13;;;7.19;100.00
46614;BME280;32338;50.430;6.806;2023-02-18T03:33:19;66193.09;;;7.13;100.00
46614;BME280;32338;50.430;6.806;2023-02-18T03:35:49;66192.53;;;7.13;100.00
46614;BME280;32338;50.430;6.806;2023-02-18T03:38:20;66191.41;;;7.12;100.00
46614;BME280;32338;50.430;6.806;2023-02-18T03:40:49;66199.84;;;7.20;100.00
46614;BME280;32338;50.430;6.806;2023-02-18T03:43:16;66195.69;;;7.13;100.00
46614;BME280;32338;50.430;6.806;2023-02-18T03:45:42;66193.66;;;7.14;100.00
46614;BME280;32338;50.430;6.806;2023-02-18T03:48:09;66201.13;;;7.16;100.00
46614;BME280;32338;50.430;6.806;2023-02-18T03:50:36;66207.31;;;7.22;100.00
46614;BME280;32338;50.430;6.806;2023-02-18T03:53:02;66192.34;;;7.10;100.00
46614;BME280;32338;50.430;6.806;2023-02-18T03:55:30;66187.84;;;7.06;100.00
46614;BME280;32338;50.430;6.806;2023-02-18T03:57:57;66183.34;;;7.02;100.00
46614;BME280;32338;50.430;6.806;2023-02-18T04:00:24;66190.09;;;7.08;100.00
46614;BME280;32338;50.430;6.806;2023-02-18T04:02:50;66182.06;;;7.06;100.00
46614;BME280;32338;50.430;6.806;2023-02-18T04:05:17;66196.81;;;7.14;100.00
46614;BME280;32338;50.430;6.806;2023-02-18T04:07:45;66185.59;;;7.04;100.00
46614;BME280;32338;50.430;6.806;2023-02-18T04:10:12;66190.28;;;7.11;100.00
46614;BME280;32338;50.430;6.806;2023-02-18T04:12:40;66184.47;;;7.03;100.00
46614;BME280;32338;50.430;6.806;2023-02-18T04:15:07;66188.97;;;7.07;100.00
46614;BME280;32338;50.430;6.806;2023-02-18T04:17:34;66191.59;;;7.07;100.00
46614;BME280;32338;50.430;6.806;2023-02-18T04:20:00;66194.78;;;7.15;100.00
46614;BME280;32338;50.430;6.806;2023-02-18T04:22:28;66206.94;;;7.24;100.00
46614;BME280;32338;50.430;6.806;2023-02-18T04:24:55;66193.66;;;7.14;100.00
46614;BME280;32338;50.430;6.806;2023-02-18T04:27:22;66197.03;;;7.17;100.00
46614;BME280;32338;50.430;6.806;2023-02-18T04:29:50;66196.06;;;7.11;100.00
46614;BME280;32338;50.430;6.806;2023-02-18T04:32:17;66199.63;;;7.17;100.00
46614;BME280;32338;50.430;6.806;2023-02-18T04:34:44;66188.19;;;7.04;100.00
46614;BME280;32338;50.430;6.806;2023-02-18T04:37:10;66189.34;;;7.05;100.00
46614;BME280;32338;50.430;6.806;2023-02-18T04:39:37;66187.84;;;7.06;100.00
46614;BME280;32338;50.430;6.806;2023-02-18T04:42:04;66180.19;;;7.02;100.00
46614;BME280;32338;50.430;6.806;2023-02-18T04:44:33;66189.72;;;7.10;100.00
46614;BME280;32338;50.430;6.806;2023-02-18T04:47:01;66192.34;;;7.10;100.00
46614;BME280;32338;50.430;6.806;2023-02-18T04:49:27;66187.84;;;7.06;100.00
46614;BME280;32338;50.430;6.806;2023-02-18T04:51:54;66183.34;;;7.02;100.00
46614;BME280;32338;50.430;6.806;2023-02-18T04:54:21;66202.44;;;7.20;100.00
46614;BME280;32338;50.430;6.806;2023-02-18T04:56:48;66186.56;;;7.10;100.00
46614;BME280;32338;50.430;6.806;2023-02-18T04:59:14;66203.00;;;7.20;100.00
46614;BME280;32338;50.430;6.806;2023-02-18T05:01:41;66191.59;;;7.07;100.00
46614;BME280;32338;50.430;6.806;2023-02-18T05:04:09;66177.03;;;7.01;100.00
46614;BME280;32338;50.430;6.806;2023-02-18T05:06:36;66178.09;;;6.95;100.00
46614;BME280;32338;50.430;6.806;2023-02-18T05:09:04;66175.84;;;6.93;100.00
46614;BME280;32338;50.430;6.806;2023-02-18T05:11:31;66170.63;;;6.93;100.00
46614;BME280;32338;50.430;6.806;2023-02-18T05:13:57;66167.63;;;6.88;100.00
46614;BME280;32338;50.430;6.806;2023-02-18T05:16:24;66183.00;;;7.04;100.00
46614;BME280;32338;50.430;6.806;2023-02-18T05:18:51;66173.78;;;6.93;100.00
46614;BME280;32338;50.430;6.806;2023-02-18T05:21:19;66176.06;;;6.95;100.00
46614;BME280;32338;50.430;6.806;2023-02-18T05:23:46;66167.25;;;6.90;100.00
46614;BME280;32338;50.430;6.806;2023-02-18T05:26:12;66164.66;;;6.90;100.00
46614;BME280;32338;50.430;6.806;2023-02-18T05:28:39;66175.13;;;6.97;100.00
46614;BME280;32338;50.430;6.806;2023-02-18T05:31:06;66177.94;;;7.00;100.00
46614;BME280;32338;50.430;6.806;2023-02-18T05:33:32;66187.06;;;7.03;100.00
46614;BME280;32338;50.430;6.806;2023-02-18T05:35:59;66175.69;;;6.97;100.00
46614;BME280;32338;50.430;6.806;2023-02-18T05:38:27;66175.28;;;6.92;100.00
46614;BME280;32338;50.430;6.806;2023-02-18T05:40:54;66179.22;;;6.96;100.00
46614;BME280;32338;50.430;6.806;2023-02-18T05:43:21;66184.84;;;7.01;100.00
46614;BME280;32338;50.430;6.806;2023-02-18T05:45:48;66183.53;;;7.05;100.00
46614;BME280;32338;50.430;6.806;2023-02-18T05:48:14;66190.25;;;7.04;100.00
46614;BME280;32338;50.430;6.806;2023-02-18T05:50:41;66179.22;;;6.96;100.00
46614;BME280;32338;50.430;6.806;2023-02-18T05:53:08;66178.84;;;6.98;100.00
46614;BME280;32338;50.430;6.806;2023-02-18T05:55:36;66173.25;;;6.93;100.00
46614;BME280;32338;50.430;6.806;2023-02-18T05:58:03;66173.78;;;6.93;100.00
46614;BME280;32338;50.430;6.806;2023-02-18T06:00:30;66175.28;;;6.92;100.00
46614;BME280;32338;50.430;6.806;2023-02-18T06:02:57;66161.50;;;6.89;100.00
46614;BME280;32338;50.430;6.806;2023-02-18T06:05:24;66188.06;;;7.09;100.00
46614;BME280;32338;50.430;6.806;2023-02-18T06:07:50;66183.16;;;7.00;100.00
46614;BME280;32338;50.430;6.806;2023-02-18T06:10:17;66178.44;;;6.93;100.00
46614;BME280;32338;50.430;6.806;2023-02-18T06:12:45;66182.59;;;6.99;100.00
46614;BME280;32338;50.430;6.806;2023-02-18T06:15:12;66175.28;;;6.92;100.00
46614;BME280;32338;50.430;6.806;2023-02-18T06:17:38;66170.22;;;6.88;100.00
46614;BME280;32338;50.430;6.806;2023-02-18T06:20:06;66174.38;;;6.94;100.00
46614;BME280;32338;50.430;6.806;2023-02-18T06:22:33;66168.38;;;6.91;100.00
46614;BME280;32338;50.430;6.806;2023-02-18T06:25:00;66174.16;;;6.91;100.00
46614;BME280;32338;50.430;6.806;2023-02-18T06:27:26;66167.97;;;6.86;100.00
46614;BME280;32338;50.430;6.806;2023-02-18T06:29:54;66170.09;;;6.92;100.00
46614;BME280;32338;50.430;6.806;2023-02-18T06:32:21;66184.84;;;7.01;100.00
46614;BME280;32338;50.430;6.806;2023-02-18T06:34:48;66169.50;;;6.92;100.00
46614;BME280;32338;50.430;6.806;2023-02-18T06:37:15;66158.63;;;6.79;100.00
46614;BME280;32338;50.430;6.806;2023-02-18T06:39:42;66163.28;;;6.79;100.00
46614;BME280;32338;50.430;6.806;2023-02-18T06:42:08;66167.25;;;6.90;100.00
46614;BME280;32338;50.430;6.806;2023-02-18T06:44:35;66157.34;;;6.83;100.00
46614;BME280;32338;50.430;6.806;2023-02-18T06:47:03;66153.22;;;6.77;100.00
46614;BME280;32338;50.430;6.806;2023-02-18T06:49:30;66145.72;;;6.68;100.00
46614;BME280;32338;50.430;6.806;2023-02-18T06:51:56;66144.06;;;6.66;100.00
46614;BME280;32338;50.430;6.806;2023-02-18T06:54:23;66147.97;;;6.70;100.00
46614;BME280;32338;50.430;6.806;2023-02-18T06:56:50;66148.34;;;6.68;100.00
46614;BME280;32338;50.430;6.806;2023-02-18T06:59:16;66139.19;;;6.64;100.00
46614;BME280;32338;50.430;6.806;2023-02-18T07:01:43;66147.75;;;6.67;100.00
46614;BME280;32338;50.430;6.806;2023-02-18T07:04:11;66140.47;;;6.60;100.00
46614;BME280;32338;50.430;6.806;2023-02-18T07:06:38;66152.81;;;6.72;100.00
46614;BME280;32338;50.430;6.806;2023-02-18T07:09:05;66153.03;;;6.74;100.00
46614;BME280;32338;50.430;6.806;2023-02-18T07:11:31;66161.63;;;6.77;100.00
46614;BME280;32338;50.430;6.806;2023-02-18T07:13:58;66158.63;;;6.79;100.00
46614;BME280;32338;50.430;6.806;2023-02-18T07:16:26;66157.88;;;6.76;100.00
46614;BME280;32338;50.430;6.806;2023-02-18T07:18:52;66155.63;;;6.74;100.00
46614;BME280;32338;50.430;6.806;2023-02-18T07:21:20;66156.41;;;6.77;100.00
46614;BME280;32338;50.430;6.806;2023-02-18T07:23:47;66165.03;;;6.88;100.00
46614;BME280;32338;50.430;6.806;2023-02-18T07:26:14;66150.06;;;6.76;100.00
46614;BME280;32338;50.430;6.806;2023-02-18T07:28:40;66146.47;;;6.71;100.00
46614;BME280;32338;50.430;6.806;2023-02-18T07:31:07;66154.91;;;6.78;100.00
46614;BME280;32338;50.430;6.806;2023-02-18T07:33:34;66156.75;;;6.75;100.00
46614;BME280;32338;50.430;6.806;2023-02-18T07:36:02;66163.13;;;6.84;100.00
46614;BME280;32338;50.430;6.806;2023-02-18T07:38:30;66165.75;;;6.84;100.00
46614;BME280;32338;50.430;6.806;2023-02-18T07:40:57;66162.38;;;6.80;100.00
46614;BME280;32338;50.430;6.806;2023-02-18T07:43:24;66148.00;;;6.77;100.00
46614;BME280;32338;50.430;6.806;2023-02-18T07:45:51;66160.13;;;6.78;100.00
46614;BME280;32338;50.430;6.806;2023-02-18T07:48:18;66151.00;;;6.75;100.00
46614;BME280;32338;50.430;6.806;2023-02-18T07:50:45;66154.16;;;6.75;100.00
46614;BME280;32338;50.430;6.806;2023-02-18T07:53:13;66156.59;;;6.80;100.00
46614;BME280;32338;50.430;6.806;2023-02-18T07:55:41;66162.38;;;6.80;100.00
46614;BME280;32338;50.430;6.806;2023-02-18T07:58:18;66165.94;;;6.86;100.00
46614;BME280;32338;50.430;6.806;2023-02-18T08:00:45;66168.56;;;6.86;100.00
46614;BME280;32338;50.430;6.806;2023-02-18T08:03:13;66169.31;;;6.89;100.00
46614;BME280;32338;50.430;6.806;2023-02-18T08:05:40;66172.69;;;6.92;100.00
46614;BME280;32338;50.430;6.806;2023-02-18T08:08:11;66175.28;;;6.92;100.00
46614;BME280;32338;50.430;6.806;2023-02-18T08:10:38;66179.63;;;7.01;100.00
46614;BME280;32338;50.430;6.806;2023-02-18T08:13:06;66185.03;;;7.04;100.00
46614;BME280;32338;50.430;6.806;2023-02-18T08:15:32;66176.97;;;6.94;100.00
46614;BME280;32338;50.430;6.806;2023-02-18T08:17:59;66173.59;;;6.91;100.00
46614;BME280;32338;50.430;6.806;2023-02-18T08:20:26;66173.44;;;6.95;100.00
46614;BME280;32338;50.430;6.806;2023-02-18T08:22:52;66191.22;;;7.09;100.00
46614;BME280;32338;50.430;6.806;2023-02-18T08:25:19;66184.13;;;7.05;100.00
46614;BME280;32338;50.430;6.806;2023-02-18T08:27:46;66194.03;;;7.12;100.00
46614;BME280;32338;50.430;6.806;2023-02-18T08:30:14;66183.53;;;7.05;100.00
46614;BME280;32338;50.430;6.806;2023-02-18T08:32:41;66190.66;;;7.09;100.00
46614;BME280;32338;50.430;6.806;2023-02-18T08:35:09;66191.59;;;7.07;100.00
46614;BME280;32338;50.430;6.806;2023-02-18T08:37:36;66179.41;;;6.98;100.00
46614;BME280;32338;50.430;6.806;2023-02-18T08:40:04;66176.25;;;6.98;100.00
46614;BME280;32338;50.430;6.806;2023-02-18T08:42:31;66179.97;;;6.99;100.00
46614;BME280;32338;50.430;6.806;2023-02-18T08:44:57;66165.94;;;6.86;100.00
46614;BME280;32338;50.430;6.806;2023-02-18T08:47:26;66173.03;;;6.90;100.00
46614;BME280;32338;50.430;6.806;2023-02-18T08:49:53;66168.19;;;6.88;100.00
46614;BME280;32338;50.430;6.806;2023-02-18T08:52:20;66163.13;;;6.84;100.00
46614;BME280;32338;50.430;6.806;2023-02-18T08:54:46;66150.63;;;6.77;100.00
46614;BME280;32338;50.430;6.806;2023-02-18T08:57:13;66152.63;;;6.69;100.00
46614;BME280;32338;50.430;6.806;2023-02-18T08:59:40;66143.69;;;6.68;100.00
46614;BME280;32338;50.430;6.806;2023-02-18T09:02:06;66147.97;;;6.70;100.00
46614;BME280;32338;50.430;6.806;2023-02-18T09:04:34;66159.72;;;6.73;100.00
46614;BME280;32338;50.430;6.806;2023-02-18T09:07:01;66159.56;;;6.78;100.00
46614;BME280;32338;50.430;6.806;2023-02-18T09:09:28;66148.16;;;6.72;100.00
46614;BME280;32338;50.430;6.806;2023-02-18T09:11:55;66159.00;;;6.77;100.00
46614;BME280;32338;50.430;6.806;2023-02-18T09:14:22;66148.53;;;6.70;100.00
46614;BME280;32338;50.430;6.806;2023-02-18T09:16:48;66147.41;;;6.69;100.00
46614;BME280;32338;50.430;6.806;2023-02-18T09:19:16;66151.53;;;6.75;100.00
46614;BME280;32338;50.430;6.806;2023-02-18T09:21:44;66155.63;;;6.74;100.00
46614;BME280;32338;50.430;6.806;2023-02-18T09:24:10;66156.59;;;6.80;100.00
46614;BME280;32338;50.430;6.806;2023-02-18T09:26:37;66157.31;;;6.76;100.00
46614;BME280;32338;50.430;6.806;2023-02-18T09:29:04;66156.41;;;6.77;100.00
46614;BME280;32338;50.430;6.806;2023-02-18T09:31:31;66156.59;;;6.80;100.00
46614;BME280;32338;50.430;6.806;2023-02-18T09:34:00;66159.22;;;6.80;100.00
46614;BME280;32338;50.430;6.806;2023-02-18T09:36:27;66167.44;;;6.85;100.00
46614;BME280;32338;50.430;6.806;2023-02-18T09:38:56;66169.84;;;6.90;100.00
46614;BME280;32338;50.430;6.806;2023-02-18T09:41:29;66171.34;;;6.89;100.00
46614;BME280;32338;50.430;6.806;2023-02-18T09:43:59;66167.81;;;6.90;100.00
46614;BME280;32338;50.430;6.806;2023-02-18T09:46:30;66181.09;;;7.00;100.00
46614;BME280;32338;50.430;6.806;2023-02-18T09:49:00;66180.34;;;6.97;100.00
46614;BME280;32338;50.430;6.806;2023-02-18T09:51:27;66176.19;;;6.91;100.00
46614;BME280;32338;50.430;6.806;2023-02-18T09:53:55;66180.53;;;7.00;100.00
46614;BME280;32338;50.430;6.806;2023-02-18T09:56:28;66210.09;;;7.24;100.00
46614;BME280;32338;50.430;6.806;2023-02-18T09:58:57;66200.97;;;7.21;100.00
46614;BME280;32338;50.430;6.806;2023-02-18T10:01:29;66197.94;;;7.16;100.00
46614;BME280;32338;50.430;6.806;2023-02-18T10:04:03;66185.25;;;7.06;100.00
46614;BME280;32338;50.430;6.806;2023-02-18T10:06:31;66179.78;;;6.96;100.00
46614;BME280;32338;50.430;6.806;2023-02-18T10:09:02;66185.75;;;7.00;100.00
46614;BME280;32338;50.430;6.806;2023-02-18T10:11:31;66188.00;;;7.02;100.00
46614;BME280;32338;50.430;6.806;2023-02-18T10:13:59;66188.56;;;7.02;100.00
46614;BME280;32338;50.430;6.806;2023-02-18T10:16:27;66194.03;;;7.12;100.00
46614;BME280;32338;50.430;6.806;2023-02-18T10:18:56;66200.56;;;7.16;100.00
46614;BME280;32338;50.430;6.806;2023-02-18T10:21:24;66218.53;;;7.32;100.00
46614;BME280;32338;50.430;6.806;2023-02-18T10:23:55;66206.03;;;7.25;100.00
46614;BME280;32338;50.430;6.806;2023-02-18T10:26:26;66222.31;;;7.40;100.00
46614;BME280;32338;50.430;6.806;2023-02-18T10:28:54;66230.19;;;7.47;100.00
46614;BME280;32338;50.430;6.806;2023-02-18T10:31:27;66253.00;;;7.66;100.00
46614;BME280;32338;50.430;6.806;2023-02-18T10:33:59;66243.84;;;7.55;100.00
46614;BME280;32338;50.430;6.806;2023-02-18T10:36:35;66235.41;;;7.47;100.00
46614;BME280;32338;50.430;6.806;2023-02-18T10:42:07;66222.47;;;7.36;100.00
46614;BME280;32338;50.430;6.806;2023-02-18T10:44:44;66230.34;;;7.43;100.00
46614;BME280;32338;50.430;6.806;2023-02-18T10:47:20;66232.22;;;7.47;100.00
46614;BME280;32338;50.430;6.806;2023-02-18T10:49:55;66228.09;;;7.41;100.00
46614;BME280;32338;50.430;6.806;2023-02-18T10:52:24;66228.66;;;7.41;100.00
46614;BME280;32338;50.430;6.806;2023-02-18T10:54:57;66222.88;;;7.41;100.00
46614;BME280;32338;50.430;6.806;2023-02-18T10:57:26;66222.66;;;7.38;100.00
46614;BME280;32338;50.430;6.806;2023-02-18T10:59:55;66234.13;;;7.51;100.00
46614;BME280;32338;50.430;6.806;2023-02-18T11:02:25;66227.53;;;7.40;100.00
46614;BME280;32338;50.430;6.806;2023-02-18T11:04:54;66227.19;;;7.42;100.00
46614;BME280;32338;50.430;6.806;2023-02-18T11:07:25;66225.06;;;7.36;100.00
46614;BME280;32338;50.430;6.806;2023-02-18T11:09:53;66231.47;;;7.44;100.00
46614;BME280;32338;50.430;6.806;2023-02-18T11:12:22;66230.19;;;7.47;100.00
46614;BME280;32338;50.430;6.806;2023-02-18T11:15:06;66229.56;;;7.40;100.00
46614;BME280;32338;50.430;6.806;2023-02-18T11:17:34;66214.25;;;7.30;100.00
46614;BME280;32338;50.430;6.806;2023-02-18T11:20:20;66232.59;;;7.45;100.00
46614;BME280;32338;50.430;6.806;2023-02-18T11:22:48;66231.47;;;7.44;100.00
46614;BME280;32338;50.430;6.806;2023-02-18T11:25:20;66233.69;;;7.46;100.00
46614;BME280;32338;50.430;6.806;2023-02-18T11:27:49;66226.06;;;7.41;100.00
46614;BME280;32338;50.430;6.806;2023-02-18T11:30:22;66233.53;;;7.51;100.00
46614;BME280;32338;50.430;6.806;2023-02-18T11:32:52;66242.53;;;7.59;100.00
46614;BME280;32338;50.430;6.806;2023-02-18T11:35:24;66253.78;;;7.69;100.00
46614;BME280;32338;50.430;6.806;2023-02-18T11:37:51;66253.00;;;7.66;100.00
46614;BME280;32338;50.430;6.806;2023-02-18T11:40:21;66242.34;;;7.56;100.00
46614;BME280;32338;50.430;6.806;2023-02-18T11:42:49;66245.72;;;7.59;100.00
46614;BME280;32338;50.430;6.806;2023-02-18T11:45:27;66253.00;;;7.66;100.00
46614;BME280;32338;50.430;6.806;2023-02-18T11:47:59;66247.59;;;7.63;100.00
46614;BME280;32338;50.430;6.806;2023-02-18T11:50:30;66253.78;;;7.69;100.00
46614;BME280;32338;50.430;6.806;2023-02-18T11:52:57;66259.59;;;7.77;100.00
46614;BME280;32338;50.430;6.806;2023-02-18T11:55:25;66250.41;;;7.66;100.00
46614;BME280;32338;50.430;6.806;2023-02-18T11:57:55;66241.41;;;7.58;100.00
46614;BME280;32338;50.430;6.806;2023-02-18T12:00:28;66236.16;;;7.51;100.00
46614;BME280;32338;50.430;6.806;2023-02-18T12:03:08;66224.00;;;7.42;100.00
46614;BME280;32338;50.430;6.806;2023-02-18T12:05:41;66227.53;;;7.40;100.00
46614;BME280;32338;50.430;6.806;2023-02-18T12:08:12;66224.94;;;7.40;100.00
46614;BME280;32338;50.430;6.806;2023-02-18T12:10:46;66225.13;;;7.43;100.00
46614;BME280;32338;50.430;6.806;2023-02-18T12:13:22;66225.84;;;7.39;100.00
46614;BME280;32338;50.430;6.806;2023-02-18T12:15:53;66221.75;;;7.40;100.00
46614;BME280;32338;50.430;6.806;2023-02-18T12:18:38;66223.25;;;7.39;100.00
46614;BME280;32338;50.430;6.806;2023-02-18T12:21:29;66218.72;;;7.35;100.00
46614;BME280;32338;50.430;6.806;2023-02-18T12:24:06;66214.25;;;7.30;100.00
46614;BME280;32338;50.430;6.806;2023-02-18T12:26:40;66195.91;;;7.16;100.00
46614;BME280;32338;50.430;6.806;2023-02-18T12:29:22;66194.94;;;7.10;100.00
46614;BME280;32338;50.430;6.806;2023-02-18T12:32:08;66203.22;;;7.23;100.00
46614;BME280;32338;50.430;6.806;2023-02-18T12:34:46;66207.84;;;7.22;100.00
46614;BME280;32338;50.430;6.806;2023-02-18T12:37:43;66197.94;;;7.16;100.00
46614;BME280;32338;50.430;6.806;2023-02-18T12:40:35;66196.81;;;7.14;100.00
46614;BME280;32338;50.430;6.806;2023-02-18T12:43:11;66194.78;;;7.15;100.00
46614;BME280;32338;50.430;6.806;2023-02-18T12:48:45;66203.56;;;7.21;100.00
46614;BME280;32338;50.430;6.806;2023-02-18T12:51:25;66189.19;;;7.10;100.00
46614;BME280;32338;50.430;6.806;2023-02-18T12:54:07;66199.09;;;7.17;100.00
46614;BME280;32338;50.430;6.806;2023-02-18T12:57:10;66200.56;;;7.16;100.00
46614;BME280;32338;50.430;6.806;2023-02-18T13:02:56;66192.50;;;7.06;100.00
46614;BME280;32338;50.430;6.806;2023-02-18T13:05:34;66195.50;;;7.11;100.00
46614;BME280;32338;50.430;6.806;2023-02-18T13:08:18;66184.66;;;7.06;100.00
46614;BME280;32338;50.430;6.806;2023-02-18T13:11:00;66190.09;;;7.08;100.00
46614;BME280;32338;50.430;6.806;2023-02-18T13:13:30;66194.75;;;7.08;100.00
46614;BME280;32338;50.430;6.806;2023-02-18T13:16:02;66197.94;;;7.16;100.00
46614;BME280;32338;50.430;6.806;2023-02-18T13:18:32;66203.56;;;7.21;100.00
46614;BME280;32338;50.430;6.806;2023-02-18T13:21:04;66193.47;;;7.11;100.00
46614;BME280;32338;50.430;6.806;2023-02-18T13:23:35;66199.09;;;7.17;100.00
46614;BME280;32338;50.430;6.806;2023-02-18T13:26:05;66188.59;;;7.09;100.00